sensor_id;sensor_type;location;lat;lon;timestamp;pressure;altitude;pressure_sealevel;temperature;humidity
29907;BME280;16776;50.958;10.994;2023-03-18T00:00:44;97892.47;;;10.75;73.66
29907;BME280;16776;50.958;10.994;2023-03-18T00:03:12;97901.88;;;10.76;73.83
29907;BME280;16776;50.958;10.994;2023-03-18T00:05:39;97886.00;;;10.64;73.83
29907;BME280;16776;50.958;10.994;2023-03-18T00:08:06;97899.53;;;10.70;74.00
29907;BME280;16776;50.958;10.994;2023-03-18T00:10:34;97906.44;;;10.69;74.01
29907;BME280;16776;50.958;10.994;2023-03-18T00:13:01;97906.50;;;10.68;73.89
29907;BME280;16776;50.958;10.994;2023-03-18T00:15:28;97905.72;;;10.66;73.98
29907;BME280;16776;50.958;10.994;2023-03-18T00:17:56;97898.19;;;10.61;73.88
29907;BME280;16776;50.958;10.994;2023-03-18T00:20:28;97908.25;;;10.67;73.97
29907;BME280;16776;50.958;10.994;2023-03-18T00:23:04;97904.22;;;10.60;74.26
29907;BME280;16776;50.958;10.994;2023-03-18T00:25:30;97920.63;;;10.57;74.17
29907;BME280;16776;50.958;10.994;2023-03-18T00:27:57;97919.84;;;10.55;74.54
29907;BME280;16776;50.958;10.994;2023-03-18T00:30:24;97915.66;;;10.53;74.37
29907;BME280;16776;50.958;10.994;2023-03-18T00:32:50;97919.22;;;10.49;74.12
29907;BME280;16776;50.958;10.994;2023-03-18T00:35:17;97924.47;;;10.46;74.47
29907;BME280;16776;50.958;10.994;2023-03-18T00:37:45;97930.44;;;10.46;74.52
29907;BME280;16776;50.958;10.994;2023-03-18T00:40:13;97926.38;;;10.41;75.35
29907;BME280;16776;50.958;10.994;2023-03-18T00:42:44;97941.06;;;10.37;75.04
29907;BME280;16776;50.958;10.994;2023-03-18T00:45:15;97939.41;;;10.36;74.85
29907;BME280;16776;50.958;10.994;2023-03-18T00:47:43;97942.97;;;10.32;74.87
29907;BME280;16776;50.958;10.994;2023-03-18T00:50:11;97939.69;;;10.29;75.12
29907;BME280;16776;50.958;10.994;2023-03-18T00:52:38;97944.91;;;10.27;75.05
29907;BME280;16776;50.958;10.994;2023-03-18T00:55:07;97940.59;;;10.28;75.03
29907;BME280;16776;50.958;10.994;2023-03-18T00:57:34;97941.56;;;10.23;75.20
29907;BME280;16776;50.958;10.994;2023-03-18T01:00:01;97948.53;;;10.21;75.15
29907;BME280;16776;50.958;10.994;2023-03-18T01:02:31;97939.44;;;10.11;76.05
29907;BME280;16776;50.958;10.994;2023-03-18T01:04:58;97944.50;;;10.14;75.47
29907;BME280;16776;50.958;10.994;2023-03-18T01:07:25;97943.75;;;10.11;75.67
29907;BME280;16776;50.958;10.994;2023-03-18T01:09:51;97944.66;;;10.10;75.62
29907;BME280;16776;50.958;10.994;2023-03-18T01:12:29;97947.03;;;10.16;75.00
29907;BME280;16776;50.958;10.994;2023-03-18T01:14:55;97949.13;;;10.05;75.86
29907;BME280;16776;50.958;10.994;2023-03-18T01:17:22;97953.53;;;10.01;75.46
29907;BME280;16776;50.958;10.994;2023-03-18T01:19:49;97946.75;;;9.99;75.84
29907;BME280;16776;50.958;10.994;2023-03-18T01:22:17;97939.16;;;9.96;76.34
29907;BME280;16776;50.958;10.994;2023-03-18T01:24:45;97938.31;;;9.95;75.77
29907;BME280;16776;50.958;10.994;2023-03-18T01:27:12;97945.38;;;9.90;75.98
29907;BME280;16776;50.958;10.994;2023-03-18T01:29:41;97946.31;;;9.88;75.95
29907;BME280;16776;50.958;10.994;2023-03-18T01:32:07;97949.94;;;9.82;75.92
29907;BME280;16776;50.958;10.994;2023-03-18T01:34:34;97941.50;;;9.78;76.18
29907;BME280;16776;50.958;10.994;2023-03-18T01:37:00;97945.00;;;9.76;76.26
29907;BME280;16776;50.958;10.994;2023-03-18T01:39:27;97947.63;;;9.74;76.35
29907;BME280;16776;50.958;10.994;2023-03-18T01:41:57;97951.78;;;9.78;76.38
29907;BME280;16776;50.958;10.994;2023-03-18T01:44:23;97941.66;;;9.72;76.44
29907;BME280;16776;50.958;10.994;2023-03-18T01:46:56;97942.44;;;9.76;76.78
29907;BME280;16776;50.958;10.994;2023-03-18T01:49:25;97948.63;;;9.70;76.62
29907;BME280;16776;50.958;10.994;2023-03-18T01:51:56;97947.88;;;9.67;77.08
29907;BME280;16776;50.958;10.994;2023-03-18T01:54:24;97952.28;;;9.63;76.74
29907;BME280;16776;50.958;10.994;2023-03-18T01:56:52;97960.94;;;9.61;76.74
29907;BME280;16776;50.958;10.994;2023-03-18T01:59:23;97952.34;;;9.62;76.92
29907;BME280;16776;50.958;10.994;2023-03-18T02:01:58;97952.38;;;9.60;76.80
29907;BME280;16776;50.958;10.994;2023-03-18T02:04:31;97949.81;;;9.60;77.37
29907;BME280;16776;50.958;10.994;2023-03-18T02:06:59;97943.25;;;9.52;77.04
29907;BME280;16776;50.958;10.994;2023-03-18T02:09:25;97941.38;;;9.57;77.40
29907;BME280;16776;50.958;10.994;2023-03-18T02:11:55;97947.34;;;9.57;77.30
29907;BME280;16776;50.958;10.994;2023-03-18T02:14:23;97947.19;;;9.62;77.09
29907;BME280;16776;50.958;10.994;2023-03-18T02:16:58;97947.16;;;9.63;77.31
29907;BME280;16776;50.958;10.994;2023-03-18T02:19:38;97946.22;;;9.66;77.49
29907;BME280;16776;50.958;10.994;2023-03-18T02:22:17;97948.84;;;9.64;77.38
29907;BME280;16776;50.958;10.994;2023-03-18T02:24:52;97956.50;;;9.66;77.27
29907;BME280;16776;50.958;10.994;2023-03-18T02:27:24;97953.00;;;9.67;77.41
29907;BME280;16776;50.958;10.994;2023-03-18T02:29:53;97959.97;;;9.65;77.17
29907;BME280;16776;50.958;10.994;2023-03-18T02:32:25;97965.81;;;9.68;77.38
29907;BME280;16776;50.958;10.994;2023-03-18T02:34:54;97970.16;;;9.66;77.24
29907;BME280;16776;50.958;10.994;2023-03-18T02:37:21;97975.31;;;9.66;77.35
29907;BME280;16776;50.958;10.994;2023-03-18T02:39:48;97971.94;;;9.66;77.58
29907;BME280;16776;50.958;10.994;2023-03-18T02:42:27;97969.06;;;9.73;77.42
29907;BME280;16776;50.958;10.994;2023-03-18T02:44:56;97974.53;;;9.64;77.55
29907;BME280;16776;50.958;10.994;2023-03-18T02:47:33;97971.75;;;9.70;77.44
29907;BME280;16776;50.958;10.994;2023-03-18T02:50:00;97980.66;;;9.60;77.59
29907;BME280;16776;50.958;10.994;2023-03-18T02:52:27;97982.50;;;9.57;77.73
29907;BME280;16776;50.958;10.994;2023-03-18T02:54:53;97996.25;;;9.56;77.52
29907;BME280;16776;50.958;10.994;2023-03-18T02:57:23;97992.09;;;9.52;77.96
29907;BME280;16776;50.958;10.994;2023-03-18T02:59:51;97991.25;;;9.51;77.56
29907;BME280;16776;50.958;10.994;2023-03-18T03:02:18;97996.47;;;9.48;77.88
29907;BME280;16776;50.958;10.994;2023-03-18T03:04:45;98003.41;;;9.46;78.30
29907;BME280;16776;50.958;10.994;2023-03-18T03:07:12;98001.75;;;9.45;78.16
29907;BME280;16776;50.958;10.994;2023-03-18T03:09:38;98010.34;;;9.44;78.01
29907;BME280;16776;50.958;10.994;2023-03-18T03:12:09;98012.78;;;9.47;78.24
29907;BME280;16776;50.958;10.994;2023-03-18T03:14:43;98008.75;;;9.40;78.43
29907;BME280;16776;50.958;10.994;2023-03-18T03:17:12;98000.97;;;9.41;78.45
29907;BME280;16776;50.958;10.994;2023-03-18T03:19:39;98007.13;;;9.37;78.35
29907;BME280;16776;50.958;10.994;2023-03-18T03:22:06;98013.94;;;9.37;78.21
29907;BME280;16776;50.958;10.994;2023-03-18T03:24:32;98013.94;;;9.37;78.25
29907;BME280;16776;50.958;10.994;2023-03-18T03:26:59;98018.28;;;9.35;78.43
29907;BME280;16776;50.958;10.994;2023-03-18T03:29:26;98025.13;;;9.36;78.58
29907;BME280;16776;50.958;10.994;2023-03-18T03:31:53;98016.72;;;9.31;78.97
29907;BME280;16776;50.958;10.994;2023-03-18T03:34:21;98030.25;;;9.36;78.79
29907;BME280;16776;50.958;10.994;2023-03-18T03:36:49;98029.44;;;9.34;78.74
29907;BME280;16776;50.958;10.994;2023-03-18T03:39:15;98033.69;;;9.35;78.81
29907;BME280;16776;50.958;10.994;2023-03-18T03:41:43;98034.59;;;9.34;78.80
29907;BME280;16776;50.958;10.994;2023-03-18T03:44:09;98033.69;;;9.35;78.90
29907;BME280;16776;50.958;10.994;2023-03-18T03:46:36;98037.16;;;9.34;78.90
29907;BME280;16776;50.958;10.994;2023-03-18T03:49:03;98038.84;;;9.35;79.38
29907;BME280;16776;50.958;10.994;2023-03-18T03:51:32;98037.06;;;9.37;79.40
29907;BME280;16776;50.958;10.994;2023-03-18T03:53:58;98038.84;;;9.35;79.46
29907;BME280;16776;50.958;10.994;2023-03-18T03:56:26;98032.03;;;9.34;78.95
29907;BME280;16776;50.958;10.994;2023-03-18T03:58:56;98033.78;;;9.33;79.51
29907;BME280;16776;50.958;10.994;2023-03-18T04:01:24;98036.38;;;9.32;79.70
29907;BME280;16776;50.958;10.994;2023-03-18T04:03:51;98030.44;;;9.30;79.24
29907;BME280;16776;50.958;10.994;2023-03-18T04:06:18;98036.47;;;9.29;79.43
29907;BME280;16776;50.958;10.994;2023-03-18T04:08:45;98035.59;;;9.30;79.39
29907;BME280;16776;50.958;10.994;2023-03-18T04:11:12;98033.91;;;9.29;79.73
29907;BME280;16776;50.958;10.994;2023-03-18T04:13:39;98032.22;;;9.28;79.58
29907;BME280;16776;50.958;10.994;2023-03-18T04:16:06;98027.91;;;9.28;79.52
29907;BME280;16776;50.958;10.994;2023-03-18T04:18:33;98029.59;;;9.29;79.63
29907;BME280;16776;50.958;10.994;2023-03-18T04:21:00;98027.00;;;9.31;79.46
29907;BME280;16776;50.958;10.994;2023-03-18T04:23:28;98020.00;;;9.34;79.85
29907;BME280;16776;50.958;10.994;2023-03-18T04:25:58;98014.88;;;9.34;79.96
29907;BME280;16776;50.958;10.994;2023-03-18T04:28:25;98025.22;;;9.33;80.10
29907;BME280;16776;50.958;10.994;2023-03-18T04:30:52;98021.75;;;9.34;79.89
29907;BME280;16776;50.958;10.994;2023-03-18T04:33:18;98021.81;;;9.32;80.07
29907;BME280;16776;50.958;10.994;2023-03-18T04:35:46;98023.38;;;9.36;79.51
29907;BME280;16776;50.958;10.994;2023-03-18T04:38:13;98018.28;;;9.35;79.89
29907;BME280;16776;50.958;10.994;2023-03-18T04:40:39;98027.69;;;9.36;80.30
29907;BME280;16776;50.958;10.994;2023-03-18T04:43:08;98024.22;;;9.38;80.33
29907;BME280;16776;50.958;10.994;2023-03-18T04:45:35;98022.53;;;9.36;80.09
29907;BME280;16776;50.958;10.994;2023-03-18T04:48:02;98024.28;;;9.35;80.26
29907;BME280;16776;50.958;10.994;2023-03-18T04:50:29;98026.84;;;9.35;79.83
29907;BME280;16776;50.958;10.994;2023-03-18T04:52:56;98026.00;;;9.35;80.36
29907;BME280;16776;50.958;10.994;2023-03-18T04:55:22;98020.84;;;9.35;80.47
29907;BME280;16776;50.958;10.994;2023-03-18T04:57:49;98023.44;;;9.35;80.22
29907;BME280;16776;50.958;10.994;2023-03-18T05:00:19;98013.31;;;9.30;80.63
29907;BME280;16776;50.958;10.994;2023-03-18T05:02:46;98032.81;;;9.36;80.51
29907;BME280;16776;50.958;10.994;2023-03-18T05:05:13;98034.50;;;9.37;80.61
29907;BME280;16776;50.958;10.994;2023-03-18T05:07:40;98039.66;;;9.37;80.61
29907;BME280;16776;50.958;10.994;2023-03-18T05:10:08;98039.63;;;9.38;80.71
29907;BME280;16776;50.958;10.994;2023-03-18T05:12:35;98031.94;;;9.37;80.58
29907;BME280;16776;50.958;10.994;2023-03-18T05:15:02;98032.81;;;9.36;81.08
29907;BME280;16776;50.958;10.994;2023-03-18T05:17:31;98037.94;;;9.37;81.09
29907;BME280;16776;50.958;10.994;2023-03-18T05:19:58;98009.09;;;9.28;81.06
29907;BME280;16776;50.958;10.994;2023-03-18T05:22:26;98025.13;;;9.36;81.31
29907;BME280;16776;50.958;10.994;2023-03-18T05:24:52;98032.81;;;9.36;81.04
29907;BME280;16776;50.958;10.994;2023-03-18T05:27:20;98029.41;;;9.35;81.48
29907;BME280;16776;50.958;10.994;2023-03-18T05:29:47;98031.09;;;9.36;81.40
29907;BME280;16776;50.958;10.994;2023-03-18T05:32:14;98028.53;;;9.36;81.47
29907;BME280;16776;50.958;10.994;2023-03-18T05:34:42;98029.34;;;9.38;81.57
29907;BME280;16776;50.958;10.994;2023-03-18T05:37:10;98022.50;;;9.39;81.41
29907;BME280;16776;50.958;10.994;2023-03-18T05:39:37;98025.09;;;9.37;81.96
29907;BME280;16776;50.958;10.994;2023-03-18T05:42:04;98019.09;;;9.38;81.83
29907;BME280;16776;50.958;10.994;2023-03-18T05:44:31;98028.41;;;9.41;82.06
29907;BME280;16776;50.958;10.994;2023-03-18T05:46:58;98032.66;;;9.42;82.06
29907;BME280;16776;50.958;10.994;2023-03-18T05:49:25;98030.28;;;9.34;82.12
29907;BME280;16776;50.958;10.994;2023-03-18T05:51:53;98034.25;;;9.46;82.36
29907;BME280;16776;50.958;10.994;2023-03-18T05:54:20;98041.97;;;9.46;82.34
29907;BME280;16776;50.958;10.994;2023-03-18T05:56:47;98035.03;;;9.48;82.10
29907;BME280;16776;50.958;10.994;2023-03-18T05:59:17;98024.06;;;9.43;82.30
29907;BME280;16776;50.958;10.994;2023-03-18T06:01:43;98035.03;;;9.48;82.18
29907;BME280;16776;50.958;10.994;2023-03-18T06:04:10;98048.69;;;9.50;82.38
29907;BME280;16776;50.958;10.994;2023-03-18T06:06:37;98050.38;;;9.51;82.23
29907;BME280;16776;50.958;10.994;2023-03-18T06:09:07;98045.13;;;9.54;82.28
29907;BME280;16776;50.958;10.994;2023-03-18T06:11:33;98039.22;;;9.52;82.62
29907;BME280;16776;50.958;10.994;2023-03-18T06:14:01;98028.31;;;9.44;83.12
29907;BME280;16776;50.958;10.994;2023-03-18T06:16:29;98042.63;;;9.53;82.59
29907;BME280;16776;50.958;10.994;2023-03-18T06:18:55;98029.91;;;9.48;83.10
29907;BME280;16776;50.958;10.994;2023-03-18T06:21:28;98037.38;;;9.56;83.06
29907;BME280;16776;50.958;10.994;2023-03-18T06:23:56;98040.75;;;9.58;82.69
29907;BME280;16776;50.958;10.994;2023-03-18T06:26:24;98042.31;;;9.62;82.96
29907;BME280;16776;50.958;10.994;2023-03-18T06:28:51;98038.84;;;9.63;83.56
29907;BME280;16776;50.958;10.994;2023-03-18T06:31:18;98035.47;;;9.61;83.49
29907;BME280;16776;50.958;10.994;2023-03-18T06:33:46;98041.22;;;9.69;83.13
29907;BME280;16776;50.958;10.994;2023-03-18T06:36:12;98035.94;;;9.73;84.00
29907;BME280;16776;50.958;10.994;2023-03-18T06:38:40;98046.00;;;9.79;85.27
29907;BME280;16776;50.958;10.994;2023-03-18T06:41:07;98045.59;;;9.92;84.58
29907;BME280;16776;50.958;10.994;2023-03-18T06:43:35;98051.03;;;10.09;84.83
29907;BME280;16776;50.958;10.994;2023-03-18T06:46:02;98061.81;;;10.20;84.96
29907;BME280;16776;50.958;10.994;2023-03-18T06:48:29;98061.28;;;10.35;84.59
29907;BME280;16776;50.958;10.994;2023-03-18T06:50:57;98056.47;;;10.49;84.69
29907;BME280;16776;50.958;10.994;2023-03-18T06:53:23;98053.38;;;10.64;84.59
29907;BME280;16776;50.958;10.994;2023-03-18T06:55:51;98045.25;;;10.75;84.59
29907;BME280;16776;50.958;10.994;2023-03-18T06:58:18;98050.09;;;10.84;84.51
29907;BME280;16776;50.958;10.994;2023-03-18T07:00:46;98049.75;;;10.93;84.24
29907;BME280;16776;50.958;10.994;2023-03-18T07:03:13;98058.28;;;10.94;84.38
29907;BME280;16776;50.958;10.994;2023-03-18T07:05:40;98054.69;;;10.99;84.67
29907;BME280;16776;50.958;10.994;2023-03-18T07:08:07;98062.22;;;11.04;84.35
29907;BME280;16776;50.958;10.994;2023-03-18T07:10:33;98055.16;;;11.09;84.23
29907;BME280;16776;50.958;10.994;2023-03-18T07:13:00;98070.44;;;11.14;84.88
29907;BME280;16776;50.958;10.994;2023-03-18T07:15:27;98064.34;;;11.16;84.28
29907;BME280;16776;50.958;10.994;2023-03-18T07:17:57;98071.84;;;11.22;84.57
29907;BME280;16776;50.958;10.994;2023-03-18T07:20:25;98062.56;;;11.18;84.31
29907;BME280;16776;50.958;10.994;2023-03-18T07:22:54;98061.44;;;11.25;84.73
29907;BME280;16776;50.958;10.994;2023-03-18T07:25:20;98074.72;;;11.36;84.98
29907;BME280;16776;50.958;10.994;2023-03-18T07:27:49;98071.88;;;11.44;84.82
29907;BME280;16776;50.958;10.994;2023-03-18T07:30:16;98066.56;;;11.47;84.86
29907;BME280;16776;50.958;10.994;2023-03-18T07:32:44;98074.00;;;11.55;85.10
29907;BME280;16776;50.958;10.994;2023-03-18T07:35:12;98074.44;;;11.66;84.99
29907;BME280;16776;50.958;10.994;2023-03-18T07:37:39;98075.81;;;11.74;85.14
29907;BME280;16776;50.958;10.994;2023-03-18T07:40:07;98074.50;;;11.86;85.39
29907;BME280;16776;50.958;10.994;2023-03-18T07:42:34;98075.81;;;11.96;85.57
29907;BME280;16776;50.958;10.994;2023-03-18T07:45:03;98077.09;;;12.06;84.94
29907;BME280;16776;50.958;10.994;2023-03-18T07:47:30;98080.13;;;12.16;85.55
29907;BME280;16776;50.958;10.994;2023-03-18T07:49:56;98073.63;;;12.28;85.48
29907;BME280;16776;50.958;10.994;2023-03-18T07:52:28;98077.38;;;12.41;85.45
29907;BME280;16776;50.958;10.994;2023-03-18T07:54:55;98088.00;;;12.53;85.62
29907;BME280;16776;50.958;10.994;2023-03-18T07:57:22;98076.13;;;12.70;85.57
29907;BME280;16776;50.958;10.994;2023-03-18T07:59:49;98077.03;;;12.87;85.48
29907;BME280;16776;50.958;10.994;2023-03-18T08:02:16;98077.19;;;13.03;85.45
29907;BME280;16776;50.958;10.994;2023-03-18T08:04:42;98075.81;;;13.15;85.17
29907;BME280;16776;50.958;10.994;2023-03-18T08:07:11;98083.78;;;13.29;85.13
29907;BME280;16776;50.958;10.994;2023-03-18T08:09:42;98079.59;;;13.43;85.22
29907;BME280;16776;50.958;10.994;2023-03-18T08:12:08;98086.41;;;13.46;85.11
29907;BME280;16776;50.958;10.994;2023-03-18T08:14:35;98083.44;;;13.55;84.79
29907;BME280;16776;50.958;10.994;2023-03-18T08:17:02;98097.59;;;13.65;84.88
29907;BME280;16776;50.958;10.994;2023-03-18T08:19:29;98093.03;;;13.70;84.84
29907;BME280;16776;50.958;10.994;2023-03-18T08:21:56;98098.84;;;13.75;85.22
29907;BME280;16776;50.958;10.994;2023-03-18T08:24:25;98102.94;;;13.79;85.13
29907;BME280;16776;50.958;10.994;2023-03-18T08:26:53;98120.59;;;13.89;85.00
29907;BME280;16776;50.958;10.994;2023-03-18T08:29:19;98106.75;;;13.90;84.89
29907;BME280;16776;50.958;10.994;2023-03-18T08:31:46;98110.13;;;13.92;84.77
29907;BME280;16776;50.958;10.994;2023-03-18T08:34:13;98125.53;;;13.95;85.01
29907;BME280;16776;50.958;10.994;2023-03-18T08:36:40;98120.03;;;14.01;85.38
29907;BME280;16776;50.958;10.994;2023-03-18T08:39:07;98126.56;;;14.08;85.65
29907;BME280;16776;50.958;10.994;2023-03-18T08:41:34;98129.50;;;14.19;85.68
29907;BME280;16776;50.958;10.994;2023-03-18T08:44:03;98127.13;;;14.32;85.82
29907;BME280;16776;50.958;10.994;2023-03-18T08:46:30;98130.59;;;14.49;86.27
29907;BME280;16776;50.958;10.994;2023-03-18T08:48:57;98122.72;;;14.68;86.25
29907;BME280;16776;50.958;10.994;2023-03-18T08:51:24;98129.47;;;14.88;86.16
29907;BME280;16776;50.958;10.994;2023-03-18T08:53:51;98125.81;;;15.08;85.96
29907;BME280;16776;50.958;10.994;2023-03-18T08:56:18;98123.66;;;15.31;85.90
29907;BME280;16776;50.958;10.994;2023-03-18T08:58:45;98122.53;;;15.53;85.56
29907;BME280;16776;50.958;10.994;2023-03-18T09:01:13;98121.53;;;15.71;85.42
29907;BME280;16776;50.958;10.994;2023-03-18T09:03:40;98120.84;;;15.83;85.05
29907;BME280;16776;50.958;10.994;2023-03-18T09:06:07;98129.53;;;15.98;85.25
29907;BME280;16776;50.958;10.994;2023-03-18T09:08:35;98122.53;;;16.14;84.92
29907;BME280;16776;50.958;10.994;2023-03-18T09:11:04;98128.81;;;16.26;84.81
29907;BME280;16776;50.958;10.994;2023-03-18T09:13:31;98125.69;;;16.35;85.37
29907;BME280;16776;50.958;10.994;2023-03-18T09:15:58;98125.72;;;16.49;84.89
29907;BME280;16776;50.958;10.994;2023-03-18T09:18:27;98132.59;;;16.64;85.09
29907;BME280;16776;50.958;10.994;2023-03-18T09:20:53;98128.53;;;16.74;85.17
29907;BME280;16776;50.958;10.994;2023-03-18T09:23:20;98128.72;;;16.85;85.23
29907;BME280;16776;50.958;10.994;2023-03-18T09:25:47;98121.91;;;16.98;85.43
29907;BME280;16776;50.958;10.994;2023-03-18T09:28:14;98125.25;;;17.15;85.34
29907;BME280;16776;50.958;10.994;2023-03-18T09:30:42;98120.84;;;17.29;85.18
29907;BME280;16776;50.958;10.994;2023-03-18T09:33:08;98117.28;;;17.45;84.74
29907;BME280;16776;50.958;10.994;2023-03-18T09:35:37;98108.41;;;17.61;84.67
29907;BME280;16776;50.958;10.994;2023-03-18T09:38:04;98114.63;;;17.73;84.72
29907;BME280;16776;50.958;10.994;2023-03-18T09:40:32;98117.09;;;17.89;84.46
29907;BME280;16776;50.958;10.994;2023-03-18T09:43:09;98115.16;;;18.05;84.25
29907;BME280;16776;50.958;10.994;2023-03-18T09:45:45;98115.09;;;18.19;84.28
29907;BME280;16776;50.958;10.994;2023-03-18T09:48:39;98117.63;;;18.33;83.95
29907;BME280;16776;50.958;10.994;2023-03-18T09:51:16;98117.97;;;18.41;83.82
29907;BME280;16776;50.958;10.994;2023-03-18T09:53:54;98121.75;;;18.50;83.40
29907;BME280;16776;50.958;10.994;2023-03-18T09:56:24;98122.38;;;18.53;83.62
29907;BME280;16776;50.958;10.994;2023-03-18T09:58:55;98131.25;;;18.64;83.39
29907;BME280;16776;50.958;10.994;2023-03-18T10:01:26;98129.72;;;18.74;83.50
29907;BME280;16776;50.958;10.994;2023-03-18T10:03:59;98133.34;;;18.84;83.49
29907;BME280;16776;50.958;10.994;2023-03-18T10:06:31;98137.00;;;18.94;83.56
29907;BME280;16776;50.958;10.994;2023-03-18T10:09:05;98132.50;;;19.09;83.52
29907;BME280;16776;50.958;10.994;2023-03-18T10:11:36;98142.09;;;19.21;83.46
29907;BME280;16776;50.958;10.994;2023-03-18T10:14:31;98145.00;;;19.42;83.65
29907;BME280;16776;50.958;10.994;2023-03-18T10:17:05;98136.84;;;19.46;83.40
29907;BME280;16776;50.958;10.994;2023-03-18T10:19:33;98131.81;;;19.56;83.52
29907;BME280;16776;50.958;10.994;2023-03-18T10:22:23;98137.88;;;19.80;83.02
29907;BME280;16776;50.958;10.994;2023-03-18T10:24:57;98138.09;;;19.90;83.30
29907;BME280;16776;50.958;10.994;2023-03-18T10:27:37;98132.28;;;19.97;82.73
29907;BME280;16776;50.958;10.994;2023-03-18T10:30:20;98137.59;;;20.08;83.15
29907;BME280;16776;50.958;10.994;2023-03-18T10:32:58;98140.22;;;20.08;82.29
29907;BME280;16776;50.958;10.994;2023-03-18T10:35:32;98148.16;;;20.07;82.27
29907;BME280;16776;50.958;10.994;2023-03-18T10:38:13;98146.97;;;20.11;82.33
29907;BME280;16776;50.958;10.994;2023-03-18T10:40:45;98145.66;;;20.05;81.80
29907;BME280;16776;50.958;10.994;2023-03-18T10:43:16;98145.19;;;20.11;81.68
29907;BME280;16776;50.958;10.994;2023-03-18T10:45:45;98142.09;;;20.06;81.56
29907;BME280;16776;50.958;10.994;2023-03-18T10:48:17;98142.91;;;20.07;81.67
29907;BME280;16776;50.958;10.994;2023-03-18T10:50:53;98153.97;;;20.10;81.80
29907;BME280;16776;50.958;10.994;2023-03-18T10:53:26;98151.88;;;20.15;81.67
29907;BME280;16776;50.958;10.994;2023-03-18T10:55:58;98152.47;;;20.19;81.56
29907;BME280;16776;50.958;10.994;2023-03-18T10:58:26;98148.91;;;20.20;81.12
29907;BME280;16776;50.958;10.994;2023-03-18T11:00:55;98141.19;;;20.19;81.20
29907;BME280;16776;50.958;10.994;2023-03-18T11:03:25;98140.25;;;20.20;81.57
29907;BME280;16776;50.958;10.994;2023-03-18T11:05:55;98144.38;;;20.22;81.62
29907;BME280;16776;50.958;10.994;2023-03-18T11:08:34;98149.56;;;20.35;82.26
29907;BME280;16776;50.958;10.994;2023-03-18T11:11:13;98150.66;;;20.43;81.74
29907;BME280;16776;50.958;10.994;2023-03-18T11:13:46;98149.72;;;20.44;81.21
29907;BME280;16776;50.958;10.994;2023-03-18T11:16:22;98149.38;;;20.49;80.52
29907;BME280;16776;50.958;10.994;2023-03-18T11:18:50;98149.34;;;20.38;80.15
29907;BME280;16776;50.958;10.994;2023-03-18T11:21:19;98151.34;;;20.34;79.98
29907;BME280;16776;50.958;10.994;2023-03-18T11:23:52;98146.72;;;20.38;80.10
29907;BME280;16776;50.958;10.994;2023-03-18T11:26:45;98141.94;;;20.32;79.56
29907;BME280;16776;50.958;10.994;2023-03-18T11:29:18;98142.16;;;20.29;79.77
29907;BME280;16776;50.958;10.994;2023-03-18T11:31:49;98143.63;;;20.33;80.77
29907;BME280;16776;50.958;10.994;2023-03-18T11:34:16;98128.34;;;20.15;79.84
29907;BME280;16776;50.958;10.994;2023-03-18T11:36:53;98131.38;;;20.33;79.53
29907;BME280;16776;50.958;10.994;2023-03-18T11:39:25;98132.78;;;20.26;79.89
29907;BME280;16776;50.958;10.994;2023-03-18T11:41:53;98127.56;;;20.26;79.32
29907;BME280;16776;50.958;10.994;2023-03-18T11:44:26;98134.09;;;20.32;79.45
29907;BME280;16776;50.958;10.994;2023-03-18T11:46:58;98127.19;;;20.31;79.22
29907;BME280;16776;50.958;10.994;2023-03-18T11:49:27;98131.84;;;20.27;78.97
29907;BME280;16776;50.958;10.994;2023-03-18T11:52:04;98135.53;;;20.36;79.46
29907;BME280;16776;50.958;10.994;2023-03-18T11:57:34;98136.81;;;20.30;78.29
29907;BME280;16776;50.958;10.994;2023-03-18T12:00:15;98122.88;;;20.19;79.19
29907;BME280;16776;50.958;10.994;2023-03-18T12:03:01;98122.53;;;20.23;79.50
29907;BME280;16776;50.958;10.994;2023-03-18T12:05:38;98121.47;;;20.26;79.28
29907;BME280;16776;50.958;10.994;2023-03-18T12:08:14;98125.31;;;20.33;79.16
29907;BME280;16776;50.958;10.994;2023-03-18T12:10:48;98126.38;;;20.41;79.47
29907;BME280;16776;50.958;10.994;2023-03-18T12:13:30;98119.44;;;20.53;79.53
29907;BME280;16776;50.958;10.994;2023-03-18T12:16:04;98117.31;;;20.58;79.54
29907;BME280;16776;50.958;10.994;2023-03-18T12:18:54;98116.97;;;20.74;79.40
29907;BME280;16776;50.958;10.994;2023-03-18T12:21:47;98110.22;;;20.82;79.73
29907;BME280;16776;50.958;10.994;2023-03-18T12:24:31;98107.75;;;20.92;79.82
29907;BME280;16776;50.958;10.994;2023-03-18T12:27:04;98108.09;;;20.99;80.55
29907;BME280;16776;50.958;10.994;2023-03-18T12:29:46;98110.09;;;21.06;79.33
29907;BME280;16776;50.958;10.994;2023-03-18T12:32:33;98114.63;;;21.15;79.29
29907;BME280;16776;50.958;10.994;2023-03-18T12:35:14;98104.38;;;21.12;79.56
29907;BME280;16776;50.958;10.994;2023-03-18T12:37:51;98102.38;;;21.16;79.07
29907;BME280;16776;50.958;10.994;2023-03-18T12:40:29;98098.81;;;21.17;79.21
29907;BME280;16776;50.958;10.994;2023-03-18T12:43:25;98098.53;;;21.20;79.41
29907;BME280;16776;50.958;10.994;2023-03-18T12:46:01;98103.53;;;21.12;78.52
29907;BME280;16776;50.958;10.994;2023-03-18T12:48:31;98108.56;;;21.04;78.29
29907;BME280;16776;50.958;10.994;2023-03-18T12:51:02;98095.69;;;21.01;78.83
29907;BME280;16776;50.958;10.994;2023-03-18T12:53:33;98102.13;;;20.97;78.90
29907;BME280;16776;50.958;10.994;2023-03-18T12:56:04;98104.75;;;20.97;78.69
29907;BME280;16776;50.958;10.994;2023-03-18T12:58:38;98095.59;;;20.91;78.80
29907;BME280;16776;50.958;10.994;2023-03-18T13:01:13;98087.13;;;20.87;78.46
29907;BME280;16776;50.958;10.994;2023-03-18T13:03:44;98095.47;;;20.81;78.74
29907;BME280;16776;50.958;10.994;2023-03-18T13:06:16;98099.75;;;20.82;78.75
29907;BME280;16776;50.958;10.994;2023-03-18T13:08:51;98090.34;;;20.80;78.43
29907;BME280;16776;50.958;10.994;2023-03-18T13:11:46;98092.38;;;20.76;78.29